This is the latest recevied weather packets stored in our database for station/object YD6HRD-13. If no packets are shown the sender has not sent any weather packets the latest 1 day(s).
| Time | Temp. | Humidity | Pressure | Rain* | Wind** | Luminosity | Snow |
|---|---|---|---|---|---|---|---|
| 1778091744 | 29.44° C | 85% | 1018.2 hPa | - | - | - | - |
| 1778091144 | 28.89° C | 86% | 1018.3 hPa | - | - | - | - |
| 1778090243 | 28.89° C | 86% | 1018.5 hPa | - | - | - | - |
| 1778089044 | 29.44° C | 85% | 1018.8 hPa | - | - | - | - |
| 1778087844 | 28.89° C | 86% | 1018.9 hPa | - | - | - | - |
| 1778084543 | 29.44° C | 86% | 1019.3 hPa | - | - | - | - |
| 1778080943 | 29.44° C | 84% | 1019.5 hPa | - | - | - | - |
| 1778080344 | 30° C | 83% | 1019.6 hPa | - | - | - | - |
| 1778079743 | 30° C | 83% | 1019.5 hPa | - | - | - | - |
| 1778078243 | 30° C | 82% | 1019.3 hPa | - | - | - | - |
| 1778076743 | 30° C | 83% | 1018.7 hPa | - | - | - | - |
| 1778076143 | 30° C | 83% | 1018.7 hPa | - | - | - | - |
| 1778075543 | 30° C | 82% | 1018.6 hPa | - | - | - | - |
| 1778074343 | 30° C | 82% | 1018.4 hPa | - | - | - | - |
| 1778072843 | 30° C | 82% | 1018.1 hPa | - | - | - | - |
| 1778072243 | 30° C | 82% | 1017.9 hPa | - | - | - | - |
| 1778069244 | 30.56° C | 82% | 1017.6 hPa | - | - | - | - |
| 1778066544 | 30.56° C | 82% | 1016.7 hPa | - | - | - | - |
| 1778065343 | 31.11° C | 81% | 1016.2 hPa | - | - | - | - |
| 1778064143 | 30° C | 83% | 1016.1 hPa | - | - | - | - |
| 1778063243 | 30.56° C | 83% | 1016.2 hPa | - | - | - | - |
| 1778062643 | 31.11° C | 81% | 1016.1 hPa | - | - | - | - |
| 1778062043 | 31.11° C | 81% | 1016 hPa | - | - | - | - |
| 1778061143 | 29.44° C | 85% | 1016.1 hPa | - | - | - | - |
| 1778060543 | 30° C | 83% | 1016.1 hPa | - | - | - | - |
* Rain since midnight (hover to see other rain measurements)
** Current wind speed in m/s (hover to see current wind gust speed)